TAF and METAR

METAR for Inca Manco Capac Airport

SPJL 251300Z 02002KT 9999 SCT017 BKN050 09/05 Q1034 RMK PP000
Report created 25. jan 14:00
wind 2 knots from NNE (020°) visibility > 10km scattered clouds (~50% cover) at 1700 feet broken clouds (~75% cover) at 5000 feet Temperature 9° with dewpoint at 5° (Humidity 76.02%) Pressure 1034 hPa

TAF for Inca Manco Capac Airport

TAF SPJL 251220Z 2512/2612 33003KT 9999 BKN015 BKN080 TX17/2519Z TN05/2610Z FM251700 22008KT 9999 BKN020 FM260100 VRB05KT 9999 SCT020 BKN080
Report created 25. jan 13:20

between 25. jan 13:00 - 26. jan 13:00

wind 3 knots from NNW (330°) visibility > 10km broken clouds (~75% cover) at 1500 feet broken clouds (~75% cover) at 8000 feet Max temperature 17° expected today at around 20 o'clock Min temperature 05° expected tomorrow at around 11 o'clock

From 25. jan 18:00

wind 8 knots from SW (220°) visibility > 10km broken clouds (~75% cover) at 2000 feet

From 26. jan 02:00

wind 5 knots from various directions visibility > 10km scattered clouds (~50% cover) at 2000 feet broken clouds (~75% cover) at 8000 feet
Inca Manco Capac Airport in Peru at 3827m

Latest 5 airports